Abraham Lincoln Capital Airport
KSPI : now visible

Airfield :











YOU CAN JOIN US ON...

 
LOGIN :

Register | Disclaimer

   EN    FR    IT 

 









Legend :    VFR   Marginal VFR   IFR   Intensive IFR   Very Intensive IFR
Visi :
Ceiling :
>= 8 km
>= 3000ft
5 to 8 km
1000 to 3000 ft
1500m to 5 km
500 to 1000 ft
800 to 1500m
200 to 500 ft
< 800m
< 200 ft
Symbols :   Thunderstorms  Fog  Heavy snow  Heavy precipitations  Wind > 20 kt






- Airport Elevation : 598 ft
- IATA code : SPI


KSPI - Abraham Lincoln Capital

CURRENT METAR :
  • 262328Z AUTO 02007KT 8SM -SN FEW009 OVC013 02/02 A3030 RMK AO2 UPB27E28SNE27B28 P0000 T00220017

EXPIRED METARs :
  • 262305Z AUTO 36007KT 6SM -SN BR BKN009 OVC013 02/02 A3030 RMK AO2 P0000 T00170017
  • 262252Z 36009KT 6SM -SN BR OVC010 02/02 A3029 RMK AO2 RAE00B24E29UPB03E24SNB00E03B29 SLP264 P0001 T00170017
  • 262229Z 01009KT 5SM -SN BR OVC010 02/02 A3030 RMK AO2 RAE00B24E29UPB03E24SNB00E03B29 P0000 T00220017
  • 262152Z 36007KT 6SM -RA BR BKN009 OVC014 02/02 A3030 RMK AO2 UPB07E28RAB12SNE07 SLP266 P0002 T00220017
  • 262138Z 01006KT 8SM -RA BKN009 OVC014 03/02 A3030 RMK AO2 UPB07E28RAB12SNE07 P0001 T00280017
  • 262128Z 01006KT 9SM -RA SCT009 OVC013 03/02 A3030 RMK AO2 UPB07E28RAB12SNE07 P0001 T00280022
  • 262052Z 35008KT 9SM -SN OVC011 03/02 A3030 RMK AO2 SLP265 P0000 60000 T00280017 53004

TAF KSPI
Valid from the 27 at 00:00 until the 28 at 00:00 UTC


262320Z 2700/2724 01007KT P6SM -RASN OVC012
FM270200 01006KT P6SM VCSH OVC016
FM271800 35006KT P6SM BKN021
FM272100 31004KT P6SM BKN040
KZKC FIR / North America



MET'MAP, your aeronautical weather chart ! - Copyright ORBIFLY December 2007 - Disclaimer

ORBIFLY MET'MAP TEAM :

Programming & Development : Alexandra Zaïnal
Concept & original design : Baudouin d'Aumeries
Assistance for programming : Marc-Olivier Méhu
Technical & hardware support : Manuel Goepfert

Contact : metmap@orbifly.com




SOURCES & CREDITS :

   NOAA       Earth
Advisory